Terminal Aerodrome Forecast
Issued by NWS Cleveland, OH

Home | Current Version | Previous Version | Graphics & Text | Print | Product List | Glossary On
Versions: 1 2 3 4 5 6 7 8 9 10 11 12 13 14 15 16 17 18 19 20 21 22 23
000
FTUS41 KCLE 020521
TAFMFD
TAF
KMFD 020521Z 0206/0306 VRB03KT P6SM BKN045 OVC250
     FM020900 VRB03KT 5SM BR SCT012 BKN045
      TEMPO 0209/0213 3SM BR BKN012
     FM021400 03006KT P6SM BKN025 BKN250
      TEMPO 0214/0216 SCT025 BKN250
     FM021600 02006KT P6SM SCT045
     FM030100 03003KT P6SM SKC=

USA.gov is the U.S. government's official web portal to all federal, state and local government web resources and services.